Terminal Aerodrome Forecast
Issued by NWS

Home | Current Version | Previous Version | Graphics & Text | Print | Product List | Glossary On
Versions: 1 2 3 4 5 6 7 8 9 10 11 12 13 14 15
000
FTUS43 KGRB 152300
TAFAUW
TAF
KAUW 152337Z 1600/1624 30006KT P6SM SCT040 SCT060
     FM160300 VRB03KT P6SM FEW050
     FM161600 27008G13KT P6SM SCT035=

USA.gov is the U.S. government's official web portal to all federal, state and local government web resources and services.